sensor_id;sensor_type;location;lat;lon;timestamp;P1;durP1;ratioP1;P2;durP2;ratioP2
43184;SDS011;28803;52.308;19.096;2022-11-12T00:00:56;31.23;;;14.60;;
43184;SDS011;28803;52.308;19.096;2022-11-12T00:03:24;31.25;;;16.00;;
43184;SDS011;28803;52.308;19.096;2022-11-12T00:05:52;31.42;;;14.50;;
43184;SDS011;28803;52.308;19.096;2022-11-12T00:08:19;25.98;;;14.52;;
43184;SDS011;28803;52.308;19.096;2022-11-12T00:10:48;28.08;;;13.63;;
43184;SDS011;28803;52.308;19.096;2022-11-12T00:13:15;28.00;;;13.40;;
43184;SDS011;28803;52.308;19.096;2022-11-12T00:15:43;33.03;;;13.98;;
43184;SDS011;28803;52.308;19.096;2022-11-12T00:18:11;24.77;;;14.10;;
43184;SDS011;28803;52.308;19.096;2022-11-12T00:20:38;32.13;;;13.90;;
43184;SDS011;28803;52.308;19.096;2022-11-12T00:23:06;28.17;;;15.65;;
43184;SDS011;28803;52.308;19.096;2022-11-12T00:25:32;23.35;;;12.65;;
43184;SDS011;28803;52.308;19.096;2022-11-12T00:28:00;34.72;;;14.43;;
43184;SDS011;28803;52.308;19.096;2022-11-12T00:30:32;29.88;;;15.57;;
43184;SDS011;28803;52.308;19.096;2022-11-12T00:33:02;25.85;;;14.73;;
43184;SDS011;28803;52.308;19.096;2022-11-12T00:35:30;30.77;;;13.63;;
43184;SDS011;28803;52.308;19.096;2022-11-12T00:37:58;25.38;;;13.07;;
43184;SDS011;28803;52.308;19.096;2022-11-12T00:40:26;25.83;;;13.02;;
43184;SDS011;28803;52.308;19.096;2022-11-12T00:42:54;28.15;;;13.63;;
43184;SDS011;28803;52.308;19.096;2022-11-12T00:45:21;23.73;;;13.35;;
43184;SDS011;28803;52.308;19.096;2022-11-12T00:47:48;22.05;;;13.13;;
43184;SDS011;28803;52.308;19.096;2022-11-12T00:50:15;26.70;;;12.85;;
43184;SDS011;28803;52.308;19.096;2022-11-12T00:52:42;22.92;;;13.55;;
43184;SDS011;28803;52.308;19.096;2022-11-12T00:55:09;21.98;;;12.27;;
43184;SDS011;28803;52.308;19.096;2022-11-12T00:57:37;22.25;;;12.70;;
43184;SDS011;28803;52.308;19.096;2022-11-12T01:00:04;23.55;;;12.00;;
43184;SDS011;28803;52.308;19.096;2022-11-12T01:02:32;23.33;;;11.75;;
43184;SDS011;28803;52.308;19.096;2022-11-12T01:05:09;27.25;;;13.90;;
43184;SDS011;28803;52.308;19.096;2022-11-12T01:07:36;22.02;;;12.57;;
43184;SDS011;28803;52.308;19.096;2022-11-12T01:10:03;26.42;;;11.68;;
43184;SDS011;28803;52.308;19.096;2022-11-12T01:12:31;20.02;;;10.70;;
43184;SDS011;28803;52.308;19.096;2022-11-12T01:14:58;17.33;;;10.18;;
43184;SDS011;28803;52.308;19.096;2022-11-12T01:17:25;26.20;;;11.88;;
43184;SDS011;28803;52.308;19.096;2022-11-12T01:19:52;25.05;;;11.15;;
43184;SDS011;28803;52.308;19.096;2022-11-12T01:22:19;25.10;;;12.32;;
43184;SDS011;28803;52.308;19.096;2022-11-12T01:24:46;22.85;;;11.52;;
43184;SDS011;28803;52.308;19.096;2022-11-12T01:27:13;19.17;;;12.48;;
43184;SDS011;28803;52.308;19.096;2022-11-12T01:29:40;23.80;;;12.38;;
43184;SDS011;28803;52.308;19.096;2022-11-12T01:32:08;24.95;;;12.95;;
43184;SDS011;28803;52.308;19.096;2022-11-12T01:34:34;24.92;;;12.63;;
43184;SDS011;28803;52.308;19.096;2022-11-12T01:37:01;24.52;;;12.57;;
43184;SDS011;28803;52.308;19.096;2022-11-12T01:39:29;28.15;;;11.95;;
43184;SDS011;28803;52.308;19.096;2022-11-12T01:41:55;22.17;;;12.57;;
43184;SDS011;28803;52.308;19.096;2022-11-12T01:44:24;21.98;;;12.35;;
43184;SDS011;28803;52.308;19.096;2022-11-12T01:47:05;20.73;;;11.95;;
43184;SDS011;28803;52.308;19.096;2022-11-12T01:52:32;19.33;;;10.25;;
43184;SDS011;28803;52.308;19.096;2022-11-12T01:55:06;20.30;;;10.70;;
43184;SDS011;28803;52.308;19.096;2022-11-12T01:57:38;23.17;;;11.68;;
43184;SDS011;28803;52.308;19.096;2022-11-12T02:00:10;24.02;;;11.90;;
43184;SDS011;28803;52.308;19.096;2022-11-12T02:02:38;22.25;;;11.50;;
43184;SDS011;28803;52.308;19.096;2022-11-12T02:05:08;23.23;;;12.27;;
43184;SDS011;28803;52.308;19.096;2022-11-12T02:07:38;21.77;;;11.10;;
43184;SDS011;28803;52.308;19.096;2022-11-12T02:10:07;24.35;;;11.25;;
43184;SDS011;28803;52.308;19.096;2022-11-12T02:12:35;23.02;;;10.75;;
43184;SDS011;28803;52.308;19.096;2022-11-12T02:15:22;16.42;;;9.85;;
43184;SDS011;28803;52.308;19.096;2022-11-12T02:17:49;20.48;;;10.55;;
43184;SDS011;28803;52.308;19.096;2022-11-12T02:20:16;20.33;;;10.55;;
43184;SDS011;28803;52.308;19.096;2022-11-12T02:22:44;24.35;;;12.38;;
43184;SDS011;28803;52.308;19.096;2022-11-12T02:25:12;21.88;;;11.13;;
43184;SDS011;28803;52.308;19.096;2022-11-12T02:27:43;18.85;;;10.95;;
43184;SDS011;28803;52.308;19.096;2022-11-12T02:30:11;22.15;;;12.25;;
43184;SDS011;28803;52.308;19.096;2022-11-12T02:32:39;22.73;;;10.52;;
43184;SDS011;28803;52.308;19.096;2022-11-12T02:35:06;20.48;;;11.13;;
43184;SDS011;28803;52.308;19.096;2022-11-12T02:37:33;26.00;;;11.98;;
43184;SDS011;28803;52.308;19.096;2022-11-12T02:40:00;25.25;;;12.40;;
43184;SDS011;28803;52.308;19.096;2022-11-12T02:42:27;23.40;;;11.70;;
43184;SDS011;28803;52.308;19.096;2022-11-12T02:44:54;22.48;;;11.45;;
43184;SDS011;28803;52.308;19.096;2022-11-12T02:47:21;21.00;;;11.23;;
43184;SDS011;28803;52.308;19.096;2022-11-12T02:49:48;22.27;;;11.07;;
43184;SDS011;28803;52.308;19.096;2022-11-12T02:52:15;23.42;;;11.15;;
43184;SDS011;28803;52.308;19.096;2022-11-12T02:54:42;22.15;;;10.45;;
43184;SDS011;28803;52.308;19.096;2022-11-12T02:57:09;21.42;;;11.32;;
43184;SDS011;28803;52.308;19.096;2022-11-12T02:59:36;26.67;;;11.98;;
43184;SDS011;28803;52.308;19.096;2022-11-12T03:02:03;23.60;;;11.88;;
43184;SDS011;28803;52.308;19.096;2022-11-12T03:04:30;23.17;;;11.45;;
43184;SDS011;28803;52.308;19.096;2022-11-12T03:06:57;21.48;;;10.73;;
43184;SDS011;28803;52.308;19.096;2022-11-12T03:09:24;21.00;;;12.07;;
43184;SDS011;28803;52.308;19.096;2022-11-12T03:11:51;25.42;;;12.02;;
43184;SDS011;28803;52.308;19.096;2022-11-12T03:14:18;21.98;;;11.05;;
43184;SDS011;28803;52.308;19.096;2022-11-12T03:16:46;19.42;;;10.85;;
43184;SDS011;28803;52.308;19.096;2022-11-12T03:19:12;21.77;;;11.63;;
43184;SDS011;28803;52.308;19.096;2022-11-12T03:21:39;23.65;;;12.30;;
43184;SDS011;28803;52.308;19.096;2022-11-12T03:24:06;18.33;;;10.98;;
43184;SDS011;28803;52.308;19.096;2022-11-12T03:26:33;24.52;;;12.00;;
43184;SDS011;28803;52.308;19.096;2022-11-12T03:29:02;18.65;;;10.88;;
43184;SDS011;28803;52.308;19.096;2022-11-12T03:31:29;18.17;;;9.50;;
43184;SDS011;28803;52.308;19.096;2022-11-12T03:33:56;21.00;;;11.02;;
43184;SDS011;28803;52.308;19.096;2022-11-12T03:36:23;24.60;;;12.00;;
43184;SDS011;28803;52.308;19.096;2022-11-12T03:38:50;22.80;;;10.77;;
43184;SDS011;28803;52.308;19.096;2022-11-12T03:41:17;18.80;;;10.77;;
43184;SDS011;28803;52.308;19.096;2022-11-12T03:43:44;23.10;;;11.35;;
43184;SDS011;28803;52.308;19.096;2022-11-12T03:46:11;22.08;;;11.18;;
43184;SDS011;28803;52.308;19.096;2022-11-12T03:48:38;17.58;;;10.13;;
43184;SDS011;28803;52.308;19.096;2022-11-12T03:51:05;21.42;;;10.55;;
43184;SDS011;28803;52.308;19.096;2022-11-12T03:53:32;14.82;;;9.75;;
43184;SDS011;28803;52.308;19.096;2022-11-12T03:55:59;21.75;;;10.25;;
43184;SDS011;28803;52.308;19.096;2022-11-12T03:58:26;20.38;;;10.23;;
43184;SDS011;28803;52.308;19.096;2022-11-12T04:00:54;20.75;;;11.13;;
43184;SDS011;28803;52.308;19.096;2022-11-12T04:03:21;21.30;;;10.40;;
43184;SDS011;28803;52.308;19.096;2022-11-12T04:05:48;18.65;;;9.65;;
43184;SDS011;28803;52.308;19.096;2022-11-12T04:08:33;24.02;;;10.75;;
43184;SDS011;28803;52.308;19.096;2022-11-12T04:11:08;21.50;;;11.40;;
43184;SDS011;28803;52.308;19.096;2022-11-12T04:13:38;18.48;;;11.32;;
43184;SDS011;28803;52.308;19.096;2022-11-12T04:16:10;17.50;;;10.25;;
43184;SDS011;28803;52.308;19.096;2022-11-12T04:18:57;19.67;;;11.40;;
43184;SDS011;28803;52.308;19.096;2022-11-12T04:21:51;23.15;;;12.23;;
43184;SDS011;28803;52.308;19.096;2022-11-12T04:27:15;19.02;;;11.10;;
43184;SDS011;28803;52.308;19.096;2022-11-12T04:29:52;21.38;;;10.48;;
43184;SDS011;28803;52.308;19.096;2022-11-12T04:32:49;21.02;;;10.25;;
43184;SDS011;28803;52.308;19.096;2022-11-12T04:35:20;21.35;;;10.90;;
43184;SDS011;28803;52.308;19.096;2022-11-12T04:37:52;20.30;;;11.48;;
43184;SDS011;28803;52.308;19.096;2022-11-12T04:40:23;22.25;;;10.43;;
43184;SDS011;28803;52.308;19.096;2022-11-12T04:43:12;20.73;;;11.60;;
43184;SDS011;28803;52.308;19.096;2022-11-12T04:45:59;21.20;;;11.60;;
43184;SDS011;28803;52.308;19.096;2022-11-12T04:48:27;22.00;;;11.88;;
43184;SDS011;28803;52.308;19.096;2022-11-12T04:50:59;20.70;;;11.30;;
43184;SDS011;28803;52.308;19.096;2022-11-12T04:53:29;18.95;;;10.52;;
43184;SDS011;28803;52.308;19.096;2022-11-12T04:55:56;24.50;;;11.85;;
43184;SDS011;28803;52.308;19.096;2022-11-12T04:58:24;20.98;;;11.38;;
43184;SDS011;28803;52.308;19.096;2022-11-12T05:00:52;19.02;;;10.73;;
43184;SDS011;28803;52.308;19.096;2022-11-12T05:03:19;19.75;;;11.07;;
43184;SDS011;28803;52.308;19.096;2022-11-12T05:05:46;21.98;;;10.90;;
43184;SDS011;28803;52.308;19.096;2022-11-12T05:08:13;23.35;;;10.35;;
43184;SDS011;28803;52.308;19.096;2022-11-12T05:10:40;20.27;;;11.15;;
43184;SDS011;28803;52.308;19.096;2022-11-12T05:13:07;24.20;;;11.50;;
43184;SDS011;28803;52.308;19.096;2022-11-12T05:15:34;18.02;;;9.70;;
43184;SDS011;28803;52.308;19.096;2022-11-12T05:18:01;22.95;;;11.43;;
43184;SDS011;28803;52.308;19.096;2022-11-12T05:20:28;21.60;;;11.95;;
43184;SDS011;28803;52.308;19.096;2022-11-12T05:22:55;21.27;;;10.18;;
43184;SDS011;28803;52.308;19.096;2022-11-12T05:25:36;18.75;;;10.23;;
43184;SDS011;28803;52.308;19.096;2022-11-12T05:28:03;18.45;;;10.30;;
43184;SDS011;28803;52.308;19.096;2022-11-12T05:30:32;19.42;;;10.85;;
43184;SDS011;28803;52.308;19.096;2022-11-12T05:32:59;18.75;;;10.45;;
43184;SDS011;28803;52.308;19.096;2022-11-12T05:35:27;20.98;;;11.52;;
43184;SDS011;28803;52.308;19.096;2022-11-12T05:37:54;23.55;;;11.35;;
43184;SDS011;28803;52.308;19.096;2022-11-12T05:40:21;26.77;;;13.15;;
43184;SDS011;28803;52.308;19.096;2022-11-12T05:42:48;20.63;;;11.20;;
43184;SDS011;28803;52.308;19.096;2022-11-12T05:45:15;20.17;;;11.07;;
43184;SDS011;28803;52.308;19.096;2022-11-12T05:47:42;22.35;;;11.07;;
43184;SDS011;28803;52.308;19.096;2022-11-12T05:50:09;24.60;;;11.73;;
43184;SDS011;28803;52.308;19.096;2022-11-12T05:52:36;22.55;;;11.77;;
43184;SDS011;28803;52.308;19.096;2022-11-12T05:55:03;20.75;;;11.80;;
43184;SDS011;28803;52.308;19.096;2022-11-12T05:57:30;25.48;;;11.55;;
43184;SDS011;28803;52.308;19.096;2022-11-12T05:59:57;22.02;;;11.18;;
43184;SDS011;28803;52.308;19.096;2022-11-12T06:02:24;23.52;;;10.65;;
43184;SDS011;28803;52.308;19.096;2022-11-12T06:04:51;19.83;;;10.90;;
43184;SDS011;28803;52.308;19.096;2022-11-12T06:07:18;24.38;;;11.85;;
43184;SDS011;28803;52.308;19.096;2022-11-12T06:09:46;20.25;;;11.27;;
43184;SDS011;28803;52.308;19.096;2022-11-12T06:12:12;20.80;;;10.93;;
43184;SDS011;28803;52.308;19.096;2022-11-12T06:14:39;27.67;;;12.73;;
43184;SDS011;28803;52.308;19.096;2022-11-12T06:17:06;19.50;;;11.32;;
43184;SDS011;28803;52.308;19.096;2022-11-12T06:19:33;20.83;;;12.20;;
43184;SDS011;28803;52.308;19.096;2022-11-12T06:22:00;24.17;;;12.00;;
43184;SDS011;28803;52.308;19.096;2022-11-12T06:24:28;23.23;;;11.80;;
43184;SDS011;28803;52.308;19.096;2022-11-12T06:27:00;24.05;;;11.68;;
43184;SDS011;28803;52.308;19.096;2022-11-12T06:29:28;25.55;;;11.68;;
43184;SDS011;28803;52.308;19.096;2022-11-12T06:31:55;21.85;;;11.98;;
43184;SDS011;28803;52.308;19.096;2022-11-12T06:34:22;24.63;;;12.15;;
43184;SDS011;28803;52.308;19.096;2022-11-12T06:36:49;19.58;;;11.50;;
43184;SDS011;28803;52.308;19.096;2022-11-12T06:39:16;24.73;;;12.02;;
43184;SDS011;28803;52.308;19.096;2022-11-12T06:41:43;19.85;;;11.07;;
43184;SDS011;28803;52.308;19.096;2022-11-12T06:44:10;22.33;;;10.80;;
43184;SDS011;28803;52.308;19.096;2022-11-12T06:46:39;23.60;;;12.38;;
43184;SDS011;28803;52.308;19.096;2022-11-12T06:49:06;23.83;;;10.85;;
43184;SDS011;28803;52.308;19.096;2022-11-12T06:51:33;21.65;;;12.52;;
43184;SDS011;28803;52.308;19.096;2022-11-12T06:54:00;25.83;;;11.73;;
43184;SDS011;28803;52.308;19.096;2022-11-12T06:56:27;23.17;;;11.23;;
43184;SDS011;28803;52.308;19.096;2022-11-12T06:58:54;19.92;;;11.30;;
43184;SDS011;28803;52.308;19.096;2022-11-12T07:01:21;20.88;;;12.00;;
43184;SDS011;28803;52.308;19.096;2022-11-12T07:03:51;27.63;;;11.98;;
43184;SDS011;28803;52.308;19.096;2022-11-12T07:06:19;20.05;;;11.10;;
43184;SDS011;28803;52.308;19.096;2022-11-12T07:08:46;24.75;;;12.90;;
43184;SDS011;28803;52.308;19.096;2022-11-12T07:11:17;21.73;;;12.50;;
43184;SDS011;28803;52.308;19.096;2022-11-12T07:13:45;25.20;;;11.50;;
43184;SDS011;28803;52.308;19.096;2022-11-12T07:16:13;22.33;;;11.93;;
43184;SDS011;28803;52.308;19.096;2022-11-12T07:18:44;25.60;;;13.27;;
43184;SDS011;28803;52.308;19.096;2022-11-12T07:21:13;24.27;;;13.00;;
43184;SDS011;28803;52.308;19.096;2022-11-12T07:23:43;27.17;;;13.95;;
43184;SDS011;28803;52.308;19.096;2022-11-12T07:28:46;25.23;;;12.55;;
43184;SDS011;28803;52.308;19.096;2022-11-12T07:31:16;21.90;;;12.25;;
43184;SDS011;28803;52.308;19.096;2022-11-12T07:33:44;24.65;;;12.82;;
43184;SDS011;28803;52.308;19.096;2022-11-12T07:36:12;24.05;;;12.55;;
43184;SDS011;28803;52.308;19.096;2022-11-12T07:38:44;24.17;;;12.23;;
43184;SDS011;28803;52.308;19.096;2022-11-12T07:41:16;27.55;;;11.82;;
43184;SDS011;28803;52.308;19.096;2022-11-12T07:43:48;22.38;;;12.18;;
43184;SDS011;28803;52.308;19.096;2022-11-12T07:46:18;24.55;;;12.57;;
43184;SDS011;28803;52.308;19.096;2022-11-12T07:48:47;27.00;;;14.00;;
43184;SDS011;28803;52.308;19.096;2022-11-12T07:51:19;25.65;;;12.25;;
43184;SDS011;28803;52.308;19.096;2022-11-12T07:53:48;23.45;;;12.63;;
43184;SDS011;28803;52.308;19.096;2022-11-12T07:56:24;22.73;;;13.57;;
43184;SDS011;28803;52.308;19.096;2022-11-12T07:58:52;24.65;;;12.73;;
43184;SDS011;28803;52.308;19.096;2022-11-12T08:01:23;20.88;;;11.02;;
43184;SDS011;28803;52.308;19.096;2022-11-12T08:04:02;22.45;;;12.68;;
43184;SDS011;28803;52.308;19.096;2022-11-12T08:06:32;23.85;;;11.52;;
43184;SDS011;28803;52.308;19.096;2022-11-12T08:09:00;25.60;;;12.38;;
43184;SDS011;28803;52.308;19.096;2022-11-12T08:11:30;28.75;;;13.13;;
43184;SDS011;28803;52.308;19.096;2022-11-12T08:13:58;25.40;;;11.60;;
43184;SDS011;28803;52.308;19.096;2022-11-12T08:16:26;23.70;;;12.48;;
43184;SDS011;28803;52.308;19.096;2022-11-12T08:18:53;22.77;;;12.70;;
43184;SDS011;28803;52.308;19.096;2022-11-12T08:21:20;25.50;;;12.82;;
43184;SDS011;28803;52.308;19.096;2022-11-12T08:23:47;23.35;;;12.30;;
43184;SDS011;28803;52.308;19.096;2022-11-12T08:26:15;19.63;;;11.77;;
43184;SDS011;28803;52.308;19.096;2022-11-12T08:28:44;27.08;;;12.90;;
43184;SDS011;28803;52.308;19.096;2022-11-12T08:31:18;22.55;;;12.70;;
43184;SDS011;28803;52.308;19.096;2022-11-12T08:33:48;24.38;;;12.18;;
43184;SDS011;28803;52.308;19.096;2022-11-12T08:36:16;24.05;;;13.07;;
43184;SDS011;28803;52.308;19.096;2022-11-12T08:38:44;21.67;;;12.05;;
43184;SDS011;28803;52.308;19.096;2022-11-12T08:41:12;28.08;;;13.07;;
43184;SDS011;28803;52.308;19.096;2022-11-12T08:43:40;25.05;;;12.27;;
43184;SDS011;28803;52.308;19.096;2022-11-12T08:46:07;22.40;;;11.00;;
43184;SDS011;28803;52.308;19.096;2022-11-12T08:48:35;20.95;;;12.02;;
43184;SDS011;28803;52.308;19.096;2022-11-12T08:51:03;20.50;;;11.90;;
43184;SDS011;28803;52.308;19.096;2022-11-12T08:53:31;22.70;;;12.40;;
43184;SDS011;28803;52.308;19.096;2022-11-12T08:55:58;23.48;;;12.35;;
43184;SDS011;28803;52.308;19.096;2022-11-12T08:58:25;22.35;;;12.32;;
43184;SDS011;28803;52.308;19.096;2022-11-12T09:00:53;23.65;;;12.98;;
43184;SDS011;28803;52.308;19.096;2022-11-12T09:03:23;21.35;;;12.48;;
43184;SDS011;28803;52.308;19.096;2022-11-12T09:05:51;23.88;;;12.02;;
43184;SDS011;28803;52.308;19.096;2022-11-12T09:08:20;20.27;;;11.48;;
43184;SDS011;28803;52.308;19.096;2022-11-12T09:10:49;25.05;;;12.27;;
43184;SDS011;28803;52.308;19.096;2022-11-12T09:13:17;21.02;;;12.25;;
43184;SDS011;28803;52.308;19.096;2022-11-12T09:15:45;24.20;;;12.25;;
43184;SDS011;28803;52.308;19.096;2022-11-12T09:18:15;20.80;;;11.68;;
43184;SDS011;28803;52.308;19.096;2022-11-12T09:20:44;22.90;;;12.85;;
43184;SDS011;28803;52.308;19.096;2022-11-12T09:23:12;22.77;;;12.15;;
43184;SDS011;28803;52.308;19.096;2022-11-12T09:25:40;20.30;;;10.75;;
43184;SDS011;28803;52.308;19.096;2022-11-12T09:28:09;27.10;;;11.80;;
43184;SDS011;28803;52.308;19.096;2022-11-12T09:30:41;20.83;;;11.25;;
43184;SDS011;28803;52.308;19.096;2022-11-12T09:33:15;21.55;;;10.85;;
43184;SDS011;28803;52.308;19.096;2022-11-12T09:35:44;21.03;;;11.37;;
43184;SDS011;28803;52.308;19.096;2022-11-12T09:38:12;22.02;;;11.00;;
43184;SDS011;28803;52.308;19.096;2022-11-12T09:40:55;20.88;;;11.93;;
43184;SDS011;28803;52.308;19.096;2022-11-12T09:43:40;21.17;;;11.57;;
43184;SDS011;28803;52.308;19.096;2022-11-12T09:49:00;16.35;;;10.00;;
43184;SDS011;28803;52.308;19.096;2022-11-12T09:51:35;21.98;;;11.35;;
43184;SDS011;28803;52.308;19.096;2022-11-12T09:54:18;19.90;;;11.43;;
43184;SDS011;28803;52.308;19.096;2022-11-12T09:59:17;19.20;;;10.68;;
43184;SDS011;28803;52.308;19.096;2022-11-12T10:07:54;20.10;;;10.13;;
43184;SDS011;28803;52.308;19.096;2022-11-12T10:21:50;18.77;;;10.18;;
43184;SDS011;28803;52.308;19.096;2022-11-12T10:24:35;28.13;;;14.05;;
43184;SDS011;28803;52.308;19.096;2022-11-12T10:27:11;24.50;;;11.75;;
43184;SDS011;28803;52.308;19.096;2022-11-12T10:29:57;52.33;;;23.35;;
43184;SDS011;28803;52.308;19.096;2022-11-12T10:32:27;32.78;;;18.02;;
43184;SDS011;28803;52.308;19.096;2022-11-12T10:34:54;28.42;;;16.17;;
43184;SDS011;28803;52.308;19.096;2022-11-12T10:37:31;22.27;;;12.30;;
43184;SDS011;28803;52.308;19.096;2022-11-12T10:40:14;19.30;;;10.48;;
43184;SDS011;28803;52.308;19.096;2022-11-12T10:43:22;22.33;;;11.50;;
43184;SDS011;28803;52.308;19.096;2022-11-12T10:45:41;21.48;;;12.00;;
43184;SDS011;28803;52.308;19.096;2022-11-12T10:48:23;17.70;;;11.00;;
43184;SDS011;28803;52.308;19.096;2022-11-12T10:51:01;18.85;;;11.27;;
43184;SDS011;28803;52.308;19.096;2022-11-12T10:53:31;35.03;;;15.60;;
43184;SDS011;28803;52.308;19.096;2022-11-12T10:56:00;17.48;;;10.75;;
43184;SDS011;28803;52.308;19.096;2022-11-12T10:58:29;22.05;;;11.30;;
43184;SDS011;28803;52.308;19.096;2022-11-12T11:03:33;25.05;;;11.27;;
43184;SDS011;28803;52.308;19.096;2022-11-12T11:06:06;20.38;;;10.48;;
43184;SDS011;28803;52.308;19.096;2022-11-12T11:08:48;21.60;;;11.68;;
43184;SDS011;28803;52.308;19.096;2022-11-12T11:11:22;21.17;;;11.57;;
43184;SDS011;28803;52.308;19.096;2022-11-12T11:13:52;21.35;;;11.23;;
43184;SDS011;28803;52.308;19.096;2022-11-12T11:18:54;17.85;;;9.35;;
43184;SDS011;28803;52.308;19.096;2022-11-12T11:24:14;18.15;;;9.82;;
43184;SDS011;28803;52.308;19.096;2022-11-12T11:29:54;20.25;;;9.82;;
43184;SDS011;28803;52.308;19.096;2022-11-12T11:36:02;17.13;;;9.60;;
43184;SDS011;28803;52.308;19.096;2022-11-12T11:41:26;28.80;;;12.25;;
43184;SDS011;28803;52.308;19.096;2022-11-12T11:55:53;20.50;;;10.70;;
43184;SDS011;28803;52.308;19.096;2022-11-12T11:58:44;20.57;;;9.80;;
43184;SDS011;28803;52.308;19.096;2022-11-12T12:13:45;22.77;;;11.45;;
43184;SDS011;28803;52.308;19.096;2022-11-12T12:19:55;19.38;;;10.60;;
43184;SDS011;28803;52.308;19.096;2022-11-12T12:22:07;19.83;;;9.38;;
43184;SDS011;28803;52.308;19.096;2022-11-12T12:24:43;22.75;;;11.80;;
43184;SDS011;28803;52.308;19.096;2022-11-12T12:27:22;16.70;;;9.05;;
43184;SDS011;28803;52.308;19.096;2022-11-12T12:29:56;22.33;;;11.32;;
43184;SDS011;28803;52.308;19.096;2022-11-12T12:32:30;22.45;;;10.68;;
43184;SDS011;28803;52.308;19.096;2022-11-12T12:35:13;22.05;;;10.90;;
43184;SDS011;28803;52.308;19.096;2022-11-12T12:37:45;18.13;;;9.63;;
43184;SDS011;28803;52.308;19.096;2022-11-12T12:40:20;27.75;;;12.95;;
43184;SDS011;28803;52.308;19.096;2022-11-12T12:42:54;23.17;;;11.45;;
43184;SDS011;28803;52.308;19.096;2022-11-12T12:48:03;20.52;;;10.88;;
43184;SDS011;28803;52.308;19.096;2022-11-12T12:50:34;19.00;;;10.02;;
43184;SDS011;28803;52.308;19.096;2022-11-12T12:58:16;20.98;;;10.95;;
43184;SDS011;28803;52.308;19.096;2022-11-12T13:00:50;26.10;;;12.18;;
43184;SDS011;28803;52.308;19.096;2022-11-12T13:09:06;23.58;;;11.50;;
43184;SDS011;28803;52.308;19.096;2022-11-12T13:11:51;25.05;;;11.63;;
43184;SDS011;28803;52.308;19.096;2022-11-12T13:19:34;31.02;;;14.75;;
43184;SDS011;28803;52.308;19.096;2022-11-12T13:28:02;24.92;;;13.55;;
43184;SDS011;28803;52.308;19.096;2022-11-12T13:32:59;24.13;;;12.85;;
43184;SDS011;28803;52.308;19.096;2022-11-12T13:35:33;23.75;;;12.85;;
43184;SDS011;28803;52.308;19.096;2022-11-12T13:46:30;23.73;;;12.95;;
43184;SDS011;28803;52.308;19.096;2022-11-12T13:49:17;23.25;;;12.75;;
43184;SDS011;28803;52.308;19.096;2022-11-12T13:51:28;20.83;;;10.60;;
43184;SDS011;28803;52.308;19.096;2022-11-12T13:57:01;28.27;;;13.63;;
43184;SDS011;28803;52.308;19.096;2022-11-12T14:00:38;25.90;;;14.10;;
43184;SDS011;28803;52.308;19.096;2022-11-12T14:02:56;20.52;;;11.85;;
43184;SDS011;28803;52.308;19.096;2022-11-12T14:05:28;21.00;;;10.98;;
43184;SDS011;28803;52.308;19.096;2022-11-12T14:08:02;27.17;;;13.52;;
43184;SDS011;28803;52.308;19.096;2022-11-12T14:19:59;23.20;;;11.88;;
43184;SDS011;28803;52.308;19.096;2022-11-12T14:22:40;25.83;;;12.25;;
43184;SDS011;28803;52.308;19.096;2022-11-12T14:25:13;24.25;;;11.27;;
43184;SDS011;28803;52.308;19.096;2022-11-12T14:27:46;24.88;;;13.40;;
43184;SDS011;28803;52.308;19.096;2022-11-12T14:32:50;47.63;;;23.30;;
43184;SDS011;28803;52.308;19.096;2022-11-12T14:35:37;72.10;;;32.25;;
43184;SDS011;28803;52.308;19.096;2022-11-12T14:40:35;44.20;;;22.88;;
43184;SDS011;28803;52.308;19.096;2022-11-12T14:43:58;30.88;;;16.88;;
43184;SDS011;28803;52.308;19.096;2022-11-12T14:46:25;23.92;;;12.88;;
43184;SDS011;28803;52.308;19.096;2022-11-12T14:51:35;23.85;;;13.93;;
43184;SDS011;28803;52.308;19.096;2022-11-12T14:54:13;21.40;;;12.70;;
43184;SDS011;28803;52.308;19.096;2022-11-12T14:56:50;43.63;;;21.77;;
43184;SDS011;28803;52.308;19.096;2022-11-12T14:59:17;41.10;;;24.10;;
43184;SDS011;28803;52.308;19.096;2022-11-12T15:05:10;45.42;;;21.70;;
43184;SDS011;28803;52.308;19.096;2022-11-12T15:07:59;51.55;;;23.83;;
43184;SDS011;28803;52.308;19.096;2022-11-12T15:13:13;83.82;;;30.52;;
43184;SDS011;28803;52.308;19.096;2022-11-12T15:15:58;93.40;;;32.88;;
43184;SDS011;28803;52.308;19.096;2022-11-12T15:18:30;41.85;;;23.17;;
43184;SDS011;28803;52.308;19.096;2022-11-12T15:21:13;35.67;;;16.65;;
43184;SDS011;28803;52.308;19.096;2022-11-12T15:23:51;32.83;;;16.20;;
43184;SDS011;28803;52.308;19.096;2022-11-12T15:26:30;31.00;;;16.73;;
43184;SDS011;28803;52.308;19.096;2022-11-12T15:29:02;26.50;;;14.98;;
43184;SDS011;28803;52.308;19.096;2022-11-12T15:31:54;24.15;;;12.93;;
43184;SDS011;28803;52.308;19.096;2022-11-12T15:34:27;26.65;;;15.20;;
43184;SDS011;28803;52.308;19.096;2022-11-12T15:37:18;33.60;;;16.17;;
43184;SDS011;28803;52.308;19.096;2022-11-12T15:39:54;34.08;;;17.38;;
43184;SDS011;28803;52.308;19.096;2022-11-12T15:42:30;31.25;;;15.05;;
43184;SDS011;28803;52.308;19.096;2022-11-12T15:45:16;25.13;;;15.27;;
43184;SDS011;28803;52.308;19.096;2022-11-12T15:47:44;51.83;;;24.45;;
43184;SDS011;28803;52.308;19.096;2022-11-12T15:50:14;49.30;;;22.75;;
43184;SDS011;28803;52.308;19.096;2022-11-12T15:52:48;40.50;;;19.45;;
43184;SDS011;28803;52.308;19.096;2022-11-12T15:55:16;33.60;;;16.73;;
43184;SDS011;28803;52.308;19.096;2022-11-12T15:57:50;28.77;;;14.32;;
43184;SDS011;28803;52.308;19.096;2022-11-12T16:00:19;31.70;;;15.82;;
43184;SDS011;28803;52.308;19.096;2022-11-12T16:02:56;30.75;;;15.60;;
43184;SDS011;28803;52.308;19.096;2022-11-12T16:05:25;32.53;;;16.70;;
43184;SDS011;28803;52.308;19.096;2022-11-12T16:07:52;31.13;;;17.25;;
43184;SDS011;28803;52.308;19.096;2022-11-12T16:10:22;35.88;;;18.08;;
43184;SDS011;28803;52.308;19.096;2022-11-12T16:12:49;35.83;;;16.45;;
43184;SDS011;28803;52.308;19.096;2022-11-12T16:15:19;30.13;;;16.65;;
43184;SDS011;28803;52.308;19.096;2022-11-12T16:17:59;41.15;;;19.00;;
43184;SDS011;28803;52.308;19.096;2022-11-12T16:20:28;42.65;;;18.23;;
43184;SDS011;28803;52.308;19.096;2022-11-12T16:22:57;44.17;;;20.63;;
43184;SDS011;28803;52.308;19.096;2022-11-12T16:25:29;39.78;;;20.40;;
43184;SDS011;28803;52.308;19.096;2022-11-12T16:27:58;49.63;;;22.23;;
43184;SDS011;28803;52.308;19.096;2022-11-12T16:30:31;41.45;;;21.17;;
43184;SDS011;28803;52.308;19.096;2022-11-12T16:32:59;37.72;;;20.05;;
43184;SDS011;28803;52.308;19.096;2022-11-12T16:35:27;41.15;;;19.38;;
43184;SDS011;28803;52.308;19.096;2022-11-12T16:38:00;42.75;;;20.42;;
43184;SDS011;28803;52.308;19.096;2022-11-12T16:40:28;54.20;;;24.00;;
43184;SDS011;28803;52.308;19.096;2022-11-12T16:42:56;34.90;;;19.27;;
43184;SDS011;28803;52.308;19.096;2022-11-12T16:45:24;36.53;;;17.55;;
43184;SDS011;28803;52.308;19.096;2022-11-12T16:48:11;36.15;;;19.15;;